Time;durP1;ratioP1;P1;durP2;ratioP2;P2;SDS_P1;SDS_P2;PMS_P1;PMS_P2;Temp;Humidity;BMP_temperature;BMP_pressure;BME280_temperature;BME280_humidity;BME280_pressure;Samples;Min_cycle;Max_cycle;Signal;HPM_P1;HPM_P2
2023/08/04 04:36:15;;;;;;;;;;;;;;;16.68;71.68;99317.28;1087397;47;19946;-82
2023/08/04 04:37:28;;;;;;;;;;;;;;;16.68;71.55;99317.28;1087331;47;19939;-84
2023/08/04 04:45:40;;;;;;;;;;;;;;;16.60;72.05;99331.81;1087438;54;19947;-83
2023/08/04 04:46:41;;;;;;;;;;;;;;;16.57;72.78;99328.69;1087410;47;19974;-82
2023/08/04 04:47:46;;;;;;;;;;;;;;;16.53;72.91;99333.66;1087480;47;19968;-81
2023/08/04 04:48:48;;;;;;;;;;;;;;;16.42;73.44;99336.94;1087403;47;19981;-83
2023/08/04 04:49:54;;;;;;;;;;;;;;;16.43;73.94;99341.28;1087395;47;19942;-83
2023/08/04 04:50:55;;;;;;;;;;;;;;;16.38;74.56;99348.09;1087645;54;20007;-82
2023/08/04 04:51:58;;;;;;;;;;;;;;;16.28;74.72;99339.53;1088188;39;21158;-82
2023/08/04 04:52:59;;;;;;;;;;;;;;;16.33;74.78;99338.94;1087878;47;19934;-82
2023/08/04 04:54:04;;;;;;;;;;;;;;;16.33;74.73;99350.56;1087804;47;19954;-83
2023/08/04 04:55:09;;;;;;;;;;;;;;;16.32;74.89;99342.66;1087924;54;19994;-83
2023/08/04 04:56:12;;;;;;;;;;;;;;;16.29;75.31;99349.31;1087822;54;19946;-82
2023/08/04 04:57:14;;;;;;;;;;;;;;;16.17;75.66;99342.78;1087964;47;19950;-83
2023/08/04 04:58:21;;;;;;;;;;;;;;;16.09;76.01;99340.25;1087996;47;19995;-82
2023/08/04 05:10:55;;;;;;;;;;;;;;;15.84;78.85;99351.50;1087695;39;20569;-80
2023/08/04 08:15:40;;;;;;;;;;;;;;;19.32;66.07;99420.44;1088163;54;19915;-85
2023/08/04 08:26:13;;;;;;;;;;;;;;;19.30;66.28;99427.94;1087766;47;19931;-82
2023/08/04 08:27:16;;;;;;;;;;;;;;;19.08;66.98;99430.97;1088377;39;20728;-84
2023/08/04 08:45:07;;;;;;;;;;;;;;;19.37;67.98;99422.50;1087654;54;19938;-84
2023/08/04 08:46:50;;;;;;;;;;;;;;;19.39;68.56;99423.94;1087474;47;19954;-84
2023/08/04 08:47:56;;;;;;;;;;;;;;;19.49;69.11;99424.28;1087401;47;19986;-84
2023/08/04 08:50:41;;;;;;;;;;;;;;;19.51;68.50;99415.13;1087994;54;19945;-85
2023/08/04 08:55:17;;;;;;;;;;;;;;;19.42;68.89;99412.66;1088168;54;19935;-85
2023/08/04 08:56:18;;;;;;;;;;;;;;;19.42;68.79;99420.81;1087756;54;20019;-84
2023/08/04 08:57:21;;;;;;;;;;;;;;;19.56;68.61;99420.69;1087480;47;19938;-83
2023/08/04 09:02:48;;;;;;;;;;;;;;;19.24;69.06;99413.38;1087058;54;19946;-81
2023/08/04 09:03:53;;;;;;;;;;;;;;;19.41;68.67;99416.44;1087247;51;20595;-83
2023/08/04 09:04:57;;;;;;;;;;;;;;;19.43;68.50;99414.34;1086929;47;19939;-82
2023/08/04 09:05:58;;;;;;;;;;;;;;;19.50;68.34;99419.72;1086680;47;19938;-82
2023/08/04 09:07:27;;;;;;;;;;;;;;;19.65;67.93;99422.09;1087613;47;19976;-83
2023/08/04 09:19:06;;;;;;;;;;;;;;;20.30;65.34;99420.97;1086757;47;19939;-82
2023/08/04 09:22:21;;;;;;;;;;;;;;;20.60;64.19;99427.53;1086825;47;19990;-81
2023/08/04 09:23:23;;;;;;;;;;;;;;;20.39;64.72;99422.34;1087107;54;19946;-83
2023/08/04 09:24:27;;;;;;;;;;;;;;;20.18;65.21;99433.59;1087249;47;19942;-84
2023/08/04 09:25:27;;;;;;;;;;;;;;;20.00;66.62;99421.66;1086850;54;19968;-84
2023/08/04 09:26:41;;;;;;;;;;;;;;;19.77;68.16;99431.19;1087124;54;19968;-82
2023/08/04 09:27:49;;;;;;;;;;;;;;;19.49;70.07;99435.13;1087853;54;19943;-83
2023/08/04 09:29:04;;;;;;;;;;;;;;;19.25;71.58;99442.16;1087832;47;19937;-83
2023/08/04 09:30:25;;;;;;;;;;;;;;;19.10;72.06;99442.44;1088253;47;19927;-85
2023/08/04 09:35:07;;;;;;;;;;;;;;;18.79;74.23;99432.31;1088164;54;19919;-85
2023/08/04 09:36:32;;;;;;;;;;;;;;;18.76;73.42;99433.59;1087650;54;19977;-85
2023/08/04 09:37:41;;;;;;;;;;;;;;;18.92;73.43;99431.44;1088124;47;19966;-85
2023/08/04 09:38:45;;;;;;;;;;;;;;;18.85;72.79;99429.59;1087975;54;19950;-85
2023/08/04 09:40:06;;;;;;;;;;;;;;;18.92;73.13;99434.16;1087568;54;19943;-83
2023/08/04 09:41:09;;;;;;;;;;;;;;;19.08;71.76;99422.84;1087781;47;19922;-84
2023/08/04 09:42:21;;;;;;;;;;;;;;;19.18;71.28;99422.41;1087196;47;19943;-82
2023/08/04 09:49:02;;;;;;;;;;;;;;;20.07;68.05;99417.00;1087890;54;19934;-86
2023/08/04 09:50:10;;;;;;;;;;;;;;;20.31;67.21;99411.75;1088265;46;19957;-86
2023/08/04 09:51:14;;;;;;;;;;;;;;;20.40;66.92;99409.59;1087185;54;19975;-83
2023/08/04 09:52:22;;;;;;;;;;;;;;;20.44;66.65;99415.38;1089567;39;20463;-86
2023/08/04 09:53:25;;;;;;;;;;;;;;;20.51;66.57;99408.00;1087344;54;19939;-87
2023/08/04 09:54:27;;;;;;;;;;;;;;;20.37;66.71;99413.59;1086666;47;19964;-84
2023/08/04 09:55:31;;;;;;;;;;;;;;;20.47;65.91;99404.09;1087256;54;19971;-85
2023/08/04 09:56:32;;;;;;;;;;;;;;;20.62;64.85;99404.53;1087107;54;20067;-87
2023/08/04 09:57:36;;;;;;;;;;;;;;;20.79;64.66;99403.94;1088013;39;20782;-86
2023/08/04 10:07:39;;;;;;;;;;;;;;;22.17;60.53;99392.28;1086709;54;20789;-86
